sensor_id;sensor_type;location;lat;lon;timestamp;P1;durP1;ratioP1;P2;durP2;ratioP2
73100;SDS011;61288;53.446;-2.266;2024-01-07T00:01:02;41.75;;;16.85;;
73100;SDS011;61288;53.446;-2.266;2024-01-07T00:03:28;39.03;;;16.45;;
73100;SDS011;61288;53.446;-2.266;2024-01-07T00:05:53;42.67;;;17.65;;
73100;SDS011;61288;53.446;-2.266;2024-01-07T00:08:19;40.40;;;16.38;;
73100;SDS011;61288;53.446;-2.266;2024-01-07T00:10:44;43.58;;;17.83;;
73100;SDS011;61288;53.446;-2.266;2024-01-07T00:13:10;41.92;;;16.98;;
73100;SDS011;61288;53.446;-2.266;2024-01-07T00:15:35;36.13;;;16.17;;
73100;SDS011;61288;53.446;-2.266;2024-01-07T00:18:00;36.15;;;14.98;;
73100;SDS011;61288;53.446;-2.266;2024-01-07T00:20:26;35.97;;;14.27;;
73100;SDS011;61288;53.446;-2.266;2024-01-07T00:22:51;38.70;;;15.05;;
73100;SDS011;61288;53.446;-2.266;2024-01-07T00:25:17;45.33;;;17.17;;
73100;SDS011;61288;53.446;-2.266;2024-01-07T00:27:43;40.13;;;15.25;;
73100;SDS011;61288;53.446;-2.266;2024-01-07T00:33:09;45.03;;;16.73;;
73100;SDS011;61288;53.446;-2.266;2024-01-07T00:35:35;37.33;;;15.10;;
73100;SDS011;61288;53.446;-2.266;2024-01-07T00:38:00;34.92;;;14.73;;
73100;SDS011;61288;53.446;-2.266;2024-01-07T00:40:26;32.92;;;12.95;;
73100;SDS011;61288;53.446;-2.266;2024-01-07T00:42:51;35.83;;;15.07;;
73100;SDS011;61288;53.446;-2.266;2024-01-07T00:45:17;31.17;;;14.57;;
73100;SDS011;61288;53.446;-2.266;2024-01-07T00:47:43;37.22;;;14.63;;
73100;SDS011;61288;53.446;-2.266;2024-01-07T00:50:09;45.10;;;18.95;;
73100;SDS011;61288;53.446;-2.266;2024-01-07T00:52:35;42.42;;;18.70;;
73100;SDS011;61288;53.446;-2.266;2024-01-07T00:55:05;47.75;;;18.90;;
73100;SDS011;61288;53.446;-2.266;2024-01-07T00:57:31;42.70;;;17.83;;
73100;SDS011;61288;53.446;-2.266;2024-01-07T00:59:58;39.80;;;18.15;;
73100;SDS011;61288;53.446;-2.266;2024-01-07T01:02:24;38.08;;;17.33;;
73100;SDS011;61288;53.446;-2.266;2024-01-07T01:04:50;41.85;;;17.20;;
73100;SDS011;61288;53.446;-2.266;2024-01-07T01:07:15;37.90;;;16.08;;
73100;SDS011;61288;53.446;-2.266;2024-01-07T01:09:41;39.47;;;16.15;;
73100;SDS011;61288;53.446;-2.266;2024-01-07T01:12:06;39.90;;;16.33;;
73100;SDS011;61288;53.446;-2.266;2024-01-07T01:14:32;36.70;;;15.27;;
73100;SDS011;61288;53.446;-2.266;2024-01-07T01:16:57;36.15;;;15.90;;
73100;SDS011;61288;53.446;-2.266;2024-01-07T01:19:23;43.25;;;17.75;;
73100;SDS011;61288;53.446;-2.266;2024-01-07T01:21:49;44.63;;;18.55;;
73100;SDS011;61288;53.446;-2.266;2024-01-07T01:24:15;42.22;;;18.25;;
73100;SDS011;61288;53.446;-2.266;2024-01-07T01:26:40;45.03;;;18.23;;
73100;SDS011;61288;53.446;-2.266;2024-01-07T01:29:06;43.25;;;17.88;;
73100;SDS011;61288;53.446;-2.266;2024-01-07T01:31:31;44.97;;;17.52;;
73100;SDS011;61288;53.446;-2.266;2024-01-07T01:33:57;36.40;;;16.60;;
73100;SDS011;61288;53.446;-2.266;2024-01-07T01:36:22;36.05;;;14.65;;
73100;SDS011;61288;53.446;-2.266;2024-01-07T01:38:48;34.65;;;13.93;;
73100;SDS011;61288;53.446;-2.266;2024-01-07T01:41:14;31.80;;;13.10;;
73100;SDS011;61288;53.446;-2.266;2024-01-07T01:43:41;31.23;;;13.13;;
73100;SDS011;61288;53.446;-2.266;2024-01-07T01:46:06;24.88;;;10.57;;
73100;SDS011;61288;53.446;-2.266;2024-01-07T01:48:32;32.20;;;10.98;;
73100;SDS011;61288;53.446;-2.266;2024-01-07T01:50:58;23.35;;;9.30;;
73100;SDS011;61288;53.446;-2.266;2024-01-07T01:53:25;28.58;;;10.70;;
73100;SDS011;61288;53.446;-2.266;2024-01-07T01:55:51;22.88;;;8.93;;
73100;SDS011;61288;53.446;-2.266;2024-01-07T01:58:19;24.85;;;9.57;;
73100;SDS011;61288;53.446;-2.266;2024-01-07T02:00:46;25.75;;;9.35;;
73100;SDS011;61288;53.446;-2.266;2024-01-07T02:03:12;23.05;;;7.90;;
73100;SDS011;61288;53.446;-2.266;2024-01-07T02:05:38;20.40;;;8.15;;
73100;SDS011;61288;53.446;-2.266;2024-01-07T02:08:04;25.20;;;8.48;;
73100;SDS011;61288;53.446;-2.266;2024-01-07T02:10:30;19.52;;;7.80;;
73100;SDS011;61288;53.446;-2.266;2024-01-07T02:12:59;19.25;;;7.38;;
73100;SDS011;61288;53.446;-2.266;2024-01-07T02:15:25;22.25;;;8.38;;
73100;SDS011;61288;53.446;-2.266;2024-01-07T02:17:51;21.08;;;7.78;;
73100;SDS011;61288;53.446;-2.266;2024-01-07T02:20:17;19.48;;;7.65;;
73100;SDS011;61288;53.446;-2.266;2024-01-07T02:22:42;21.33;;;7.28;;
73100;SDS011;61288;53.446;-2.266;2024-01-07T02:25:08;19.15;;;7.18;;
73100;SDS011;61288;53.446;-2.266;2024-01-07T02:27:33;21.40;;;7.28;;
73100;SDS011;61288;53.446;-2.266;2024-01-07T02:29:59;21.92;;;6.03;;
73100;SDS011;61288;53.446;-2.266;2024-01-07T02:32:25;18.27;;;6.40;;
73100;SDS011;61288;53.446;-2.266;2024-01-07T02:34:50;17.55;;;5.97;;
73100;SDS011;61288;53.446;-2.266;2024-01-07T02:37:16;22.85;;;7.03;;
73100;SDS011;61288;53.446;-2.266;2024-01-07T02:39:41;17.95;;;6.80;;
73100;SDS011;61288;53.446;-2.266;2024-01-07T02:42:07;18.10;;;6.25;;
73100;SDS011;61288;53.446;-2.266;2024-01-07T02:44:33;19.35;;;6.47;;
73100;SDS011;61288;53.446;-2.266;2024-01-07T02:46:58;15.55;;;5.80;;
73100;SDS011;61288;53.446;-2.266;2024-01-07T02:49:24;15.80;;;6.03;;
73100;SDS011;61288;53.446;-2.266;2024-01-07T02:51:50;17.38;;;5.88;;
73100;SDS011;61288;53.446;-2.266;2024-01-07T02:54:16;18.75;;;6.75;;
73100;SDS011;61288;53.446;-2.266;2024-01-07T02:56:41;17.90;;;7.30;;
73100;SDS011;61288;53.446;-2.266;2024-01-07T02:59:07;18.85;;;6.65;;
73100;SDS011;61288;53.446;-2.266;2024-01-07T03:01:32;20.95;;;7.10;;
73100;SDS011;61288;53.446;-2.266;2024-01-07T03:04:05;19.15;;;6.60;;
73100;SDS011;61288;53.446;-2.266;2024-01-07T03:06:32;22.55;;;6.65;;
73100;SDS011;61288;53.446;-2.266;2024-01-07T03:08:59;18.33;;;7.43;;
73100;SDS011;61288;53.446;-2.266;2024-01-07T03:11:25;20.38;;;7.70;;
73100;SDS011;61288;53.446;-2.266;2024-01-07T03:13:50;20.67;;;6.47;;
73100;SDS011;61288;53.446;-2.266;2024-01-07T03:16:21;19.42;;;6.07;;
73100;SDS011;61288;53.446;-2.266;2024-01-07T03:18:47;17.30;;;6.45;;
73100;SDS011;61288;53.446;-2.266;2024-01-07T03:21:19;18.52;;;6.72;;
73100;SDS011;61288;53.446;-2.266;2024-01-07T03:23:46;16.52;;;5.95;;
73100;SDS011;61288;53.446;-2.266;2024-01-07T03:26:13;16.85;;;6.68;;
73100;SDS011;61288;53.446;-2.266;2024-01-07T03:28:39;18.88;;;7.88;;
73100;SDS011;61288;53.446;-2.266;2024-01-07T03:31:07;20.35;;;8.43;;
73100;SDS011;61288;53.446;-2.266;2024-01-07T03:33:33;23.55;;;9.32;;
73100;SDS011;61288;53.446;-2.266;2024-01-07T03:35:59;25.58;;;9.10;;
73100;SDS011;61288;53.446;-2.266;2024-01-07T03:38:25;24.58;;;8.52;;
73100;SDS011;61288;53.446;-2.266;2024-01-07T03:40:50;22.23;;;8.60;;
73100;SDS011;61288;53.446;-2.266;2024-01-07T03:43:15;21.05;;;7.72;;
73100;SDS011;61288;53.446;-2.266;2024-01-07T03:45:44;25.33;;;8.80;;
73100;SDS011;61288;53.446;-2.266;2024-01-07T03:48:09;18.90;;;6.65;;
73100;SDS011;61288;53.446;-2.266;2024-01-07T03:50:35;18.42;;;6.38;;
73100;SDS011;61288;53.446;-2.266;2024-01-07T03:53:00;14.48;;;5.65;;
73100;SDS011;61288;53.446;-2.266;2024-01-07T03:55:25;18.58;;;5.57;;
73100;SDS011;61288;53.446;-2.266;2024-01-07T03:57:51;17.05;;;5.63;;
73100;SDS011;61288;53.446;-2.266;2024-01-07T04:00:17;14.68;;;4.88;;
73100;SDS011;61288;53.446;-2.266;2024-01-07T04:02:43;16.80;;;5.45;;
73100;SDS011;61288;53.446;-2.266;2024-01-07T04:05:09;16.08;;;5.60;;
73100;SDS011;61288;53.446;-2.266;2024-01-07T04:07:34;16.30;;;5.13;;
73100;SDS011;61288;53.446;-2.266;2024-01-07T04:10:00;15.00;;;4.65;;
73100;SDS011;61288;53.446;-2.266;2024-01-07T04:12:25;15.10;;;4.72;;
73100;SDS011;61288;53.446;-2.266;2024-01-07T04:14:51;16.55;;;5.70;;
73100;SDS011;61288;53.446;-2.266;2024-01-07T04:17:17;14.07;;;4.63;;
73100;SDS011;61288;53.446;-2.266;2024-01-07T04:19:43;16.75;;;4.63;;
73100;SDS011;61288;53.446;-2.266;2024-01-07T04:22:08;15.82;;;4.65;;
73100;SDS011;61288;53.446;-2.266;2024-01-07T04:24:34;18.05;;;5.00;;
73100;SDS011;61288;53.446;-2.266;2024-01-07T04:27:00;16.17;;;5.22;;
73100;SDS011;61288;53.446;-2.266;2024-01-07T04:29:25;13.73;;;5.30;;
73100;SDS011;61288;53.446;-2.266;2024-01-07T04:31:51;17.35;;;4.80;;
73100;SDS011;61288;53.446;-2.266;2024-01-07T04:34:16;15.88;;;5.38;;
73100;SDS011;61288;53.446;-2.266;2024-01-07T04:36:42;17.02;;;5.75;;
73100;SDS011;61288;53.446;-2.266;2024-01-07T04:39:08;15.98;;;4.63;;
73100;SDS011;61288;53.446;-2.266;2024-01-07T04:41:35;14.13;;;5.28;;
73100;SDS011;61288;53.446;-2.266;2024-01-07T04:44:00;12.63;;;4.35;;
73100;SDS011;61288;53.446;-2.266;2024-01-07T04:46:26;12.43;;;4.28;;
73100;SDS011;61288;53.446;-2.266;2024-01-07T04:48:51;16.08;;;4.65;;
73100;SDS011;61288;53.446;-2.266;2024-01-07T04:51:17;13.85;;;4.47;;
73100;SDS011;61288;53.446;-2.266;2024-01-07T04:53:42;14.00;;;5.13;;
73100;SDS011;61288;53.446;-2.266;2024-01-07T04:56:08;13.85;;;4.80;;
73100;SDS011;61288;53.446;-2.266;2024-01-07T04:58:34;15.55;;;5.28;;
73100;SDS011;61288;53.446;-2.266;2024-01-07T05:01:00;17.02;;;4.97;;
73100;SDS011;61288;53.446;-2.266;2024-01-07T05:03:25;11.00;;;4.22;;
73100;SDS011;61288;53.446;-2.266;2024-01-07T05:05:51;16.02;;;4.50;;
73100;SDS011;61288;53.446;-2.266;2024-01-07T05:08:17;15.48;;;4.32;;
73100;SDS011;61288;53.446;-2.266;2024-01-07T05:10:42;14.18;;;5.05;;
73100;SDS011;61288;53.446;-2.266;2024-01-07T05:13:08;14.40;;;4.72;;
73100;SDS011;61288;53.446;-2.266;2024-01-07T05:15:33;16.23;;;5.15;;
73100;SDS011;61288;53.446;-2.266;2024-01-07T05:17:59;18.33;;;5.28;;
73100;SDS011;61288;53.446;-2.266;2024-01-07T05:20:25;15.52;;;4.65;;
73100;SDS011;61288;53.446;-2.266;2024-01-07T05:22:50;14.45;;;4.72;;
73100;SDS011;61288;53.446;-2.266;2024-01-07T05:25:19;16.42;;;4.55;;
73100;SDS011;61288;53.446;-2.266;2024-01-07T05:27:45;15.57;;;4.88;;
73100;SDS011;61288;53.446;-2.266;2024-01-07T05:30:10;14.80;;;4.47;;
73100;SDS011;61288;53.446;-2.266;2024-01-07T05:32:36;15.43;;;4.88;;
73100;SDS011;61288;53.446;-2.266;2024-01-07T05:35:02;15.57;;;4.72;;
73100;SDS011;61288;53.446;-2.266;2024-01-07T05:37:27;13.43;;;4.18;;
73100;SDS011;61288;53.446;-2.266;2024-01-07T05:39:53;14.65;;;5.05;;
73100;SDS011;61288;53.446;-2.266;2024-01-07T05:42:18;15.60;;;5.38;;
73100;SDS011;61288;53.446;-2.266;2024-01-07T05:44:45;15.02;;;5.07;;
73100;SDS011;61288;53.446;-2.266;2024-01-07T05:47:10;14.32;;;5.43;;
73100;SDS011;61288;53.446;-2.266;2024-01-07T05:49:35;15.20;;;4.97;;
73100;SDS011;61288;53.446;-2.266;2024-01-07T05:52:01;13.70;;;4.30;;
73100;SDS011;61288;53.446;-2.266;2024-01-07T05:54:26;13.38;;;4.30;;
73100;SDS011;61288;53.446;-2.266;2024-01-07T05:56:52;14.32;;;4.35;;
73100;SDS011;61288;53.446;-2.266;2024-01-07T05:59:17;14.05;;;4.30;;
73100;SDS011;61288;53.446;-2.266;2024-01-07T06:01:43;15.45;;;4.75;;
73100;SDS011;61288;53.446;-2.266;2024-01-07T06:04:08;13.52;;;4.68;;
73100;SDS011;61288;53.446;-2.266;2024-01-07T06:06:34;15.32;;;4.53;;
73100;SDS011;61288;53.446;-2.266;2024-01-07T06:09:00;17.25;;;4.32;;
73100;SDS011;61288;53.446;-2.266;2024-01-07T06:11:26;14.55;;;4.40;;
73100;SDS011;61288;53.446;-2.266;2024-01-07T06:13:52;12.82;;;4.40;;
73100;SDS011;61288;53.446;-2.266;2024-01-07T06:16:17;14.75;;;4.93;;
73100;SDS011;61288;53.446;-2.266;2024-01-07T06:18:43;14.30;;;4.78;;
73100;SDS011;61288;53.446;-2.266;2024-01-07T06:21:08;11.95;;;4.88;;
73100;SDS011;61288;53.446;-2.266;2024-01-07T06:23:34;12.85;;;4.93;;
73100;SDS011;61288;53.446;-2.266;2024-01-07T06:26:03;14.48;;;4.82;;
73100;SDS011;61288;53.446;-2.266;2024-01-07T06:28:29;15.52;;;5.15;;
73100;SDS011;61288;53.446;-2.266;2024-01-07T06:30:55;12.88;;;4.22;;
73100;SDS011;61288;53.446;-2.266;2024-01-07T06:33:20;12.15;;;5.05;;
73100;SDS011;61288;53.446;-2.266;2024-01-07T06:35:46;14.05;;;4.90;;
73100;SDS011;61288;53.446;-2.266;2024-01-07T06:38:11;13.60;;;4.82;;
73100;SDS011;61288;53.446;-2.266;2024-01-07T06:40:37;13.68;;;5.00;;
73100;SDS011;61288;53.446;-2.266;2024-01-07T06:43:02;13.05;;;4.80;;
73100;SDS011;61288;53.446;-2.266;2024-01-07T06:45:28;13.40;;;4.90;;
73100;SDS011;61288;53.446;-2.266;2024-01-07T06:47:53;14.50;;;4.95;;
73100;SDS011;61288;53.446;-2.266;2024-01-07T06:50:19;17.00;;;5.63;;
73100;SDS011;61288;53.446;-2.266;2024-01-07T06:52:45;15.45;;;5.05;;
73100;SDS011;61288;53.446;-2.266;2024-01-07T06:55:11;12.45;;;4.35;;
73100;SDS011;61288;53.446;-2.266;2024-01-07T06:57:37;13.27;;;5.07;;
73100;SDS011;61288;53.446;-2.266;2024-01-07T07:00:02;16.60;;;5.25;;
73100;SDS011;61288;53.446;-2.266;2024-01-07T07:02:29;14.20;;;5.07;;
73100;SDS011;61288;53.446;-2.266;2024-01-07T07:04:55;15.95;;;5.35;;
73100;SDS011;61288;53.446;-2.266;2024-01-07T07:07:20;15.50;;;5.25;;
73100;SDS011;61288;53.446;-2.266;2024-01-07T07:09:45;15.82;;;4.95;;
73100;SDS011;61288;53.446;-2.266;2024-01-07T07:12:12;14.25;;;5.20;;
73100;SDS011;61288;53.446;-2.266;2024-01-07T07:14:37;14.32;;;5.13;;
73100;SDS011;61288;53.446;-2.266;2024-01-07T07:17:03;14.02;;;4.63;;
73100;SDS011;61288;53.446;-2.266;2024-01-07T07:19:28;14.18;;;4.82;;
73100;SDS011;61288;53.446;-2.266;2024-01-07T07:21:54;13.73;;;4.93;;
73100;SDS011;61288;53.446;-2.266;2024-01-07T07:24:19;14.85;;;5.13;;
73100;SDS011;61288;53.446;-2.266;2024-01-07T07:26:45;19.80;;;5.47;;
73100;SDS011;61288;53.446;-2.266;2024-01-07T07:29:10;17.15;;;5.18;;
73100;SDS011;61288;53.446;-2.266;2024-01-07T07:31:36;13.80;;;4.78;;
73100;SDS011;61288;53.446;-2.266;2024-01-07T07:34:05;16.45;;;4.85;;
73100;SDS011;61288;53.446;-2.266;2024-01-07T07:36:33;16.08;;;5.45;;
73100;SDS011;61288;53.446;-2.266;2024-01-07T07:38:59;18.00;;;5.30;;
73100;SDS011;61288;53.446;-2.266;2024-01-07T07:41:24;16.02;;;5.05;;
73100;SDS011;61288;53.446;-2.266;2024-01-07T07:43:49;13.60;;;5.13;;
73100;SDS011;61288;53.446;-2.266;2024-01-07T07:46:15;15.68;;;4.50;;
73100;SDS011;61288;53.446;-2.266;2024-01-07T07:48:41;16.73;;;5.15;;
73100;SDS011;61288;53.446;-2.266;2024-01-07T07:51:07;13.50;;;5.20;;
73100;SDS011;61288;53.446;-2.266;2024-01-07T07:53:32;15.52;;;5.25;;
73100;SDS011;61288;53.446;-2.266;2024-01-07T07:55:58;13.35;;;5.18;;
73100;SDS011;61288;53.446;-2.266;2024-01-07T07:58:24;15.55;;;5.30;;
73100;SDS011;61288;53.446;-2.266;2024-01-07T08:00:49;14.68;;;5.20;;
73100;SDS011;61288;53.446;-2.266;2024-01-07T08:03:15;14.02;;;5.28;;
73100;SDS011;61288;53.446;-2.266;2024-01-07T08:05:40;17.48;;;6.15;;
73100;SDS011;61288;53.446;-2.266;2024-01-07T08:08:07;14.18;;;5.30;;
73100;SDS011;61288;53.446;-2.266;2024-01-07T08:10:32;13.82;;;5.05;;
73100;SDS011;61288;53.446;-2.266;2024-01-07T08:13:00;14.55;;;5.60;;
73100;SDS011;61288;53.446;-2.266;2024-01-07T08:15:25;15.25;;;5.57;;
73100;SDS011;61288;53.446;-2.266;2024-01-07T08:17:51;15.75;;;5.55;;
73100;SDS011;61288;53.446;-2.266;2024-01-07T08:20:17;14.07;;;5.20;;
73100;SDS011;61288;53.446;-2.266;2024-01-07T08:22:42;17.33;;;6.22;;
73100;SDS011;61288;53.446;-2.266;2024-01-07T08:25:08;15.82;;;5.43;;
73100;SDS011;61288;53.446;-2.266;2024-01-07T08:27:34;13.15;;;4.85;;
73100;SDS011;61288;53.446;-2.266;2024-01-07T08:30:00;15.55;;;5.05;;
73100;SDS011;61288;53.446;-2.266;2024-01-07T08:32:26;12.95;;;4.60;;
73100;SDS011;61288;53.446;-2.266;2024-01-07T08:34:52;16.30;;;6.03;;
73100;SDS011;61288;53.446;-2.266;2024-01-07T08:37:17;17.30;;;4.78;;
73100;SDS011;61288;53.446;-2.266;2024-01-07T08:39:43;13.10;;;4.35;;
73100;SDS011;61288;53.446;-2.266;2024-01-07T08:42:08;12.32;;;4.53;;
73100;SDS011;61288;53.446;-2.266;2024-01-07T08:44:34;14.95;;;4.40;;
73100;SDS011;61288;53.446;-2.266;2024-01-07T08:47:00;12.23;;;4.53;;
73100;SDS011;61288;53.446;-2.266;2024-01-07T08:49:27;10.60;;;3.92;;
73100;SDS011;61288;53.446;-2.266;2024-01-07T08:51:54;12.13;;;4.35;;
73100;SDS011;61288;53.446;-2.266;2024-01-07T08:54:22;12.88;;;4.38;;
73100;SDS011;61288;53.446;-2.266;2024-01-07T08:56:47;13.35;;;4.78;;
73100;SDS011;61288;53.446;-2.266;2024-01-07T08:59:14;14.48;;;4.72;;
73100;SDS011;61288;53.446;-2.266;2024-01-07T09:01:39;16.02;;;5.38;;
73100;SDS011;61288;53.446;-2.266;2024-01-07T09:04:05;14.13;;;4.80;;
73100;SDS011;61288;53.446;-2.266;2024-01-07T09:06:31;13.02;;;4.78;;
73100;SDS011;61288;53.446;-2.266;2024-01-07T09:08:57;16.15;;;5.10;;
73100;SDS011;61288;53.446;-2.266;2024-01-07T09:11:23;19.00;;;6.07;;
73100;SDS011;61288;53.446;-2.266;2024-01-07T09:13:49;15.35;;;5.25;;
73100;SDS011;61288;53.446;-2.266;2024-01-07T09:16:15;18.70;;;6.32;;
73100;SDS011;61288;53.446;-2.266;2024-01-07T09:18:41;17.48;;;5.70;;
73100;SDS011;61288;53.446;-2.266;2024-01-07T09:21:09;18.98;;;6.00;;
73100;SDS011;61288;53.446;-2.266;2024-01-07T09:23:34;15.07;;;5.75;;
73100;SDS011;61288;53.446;-2.266;2024-01-07T09:26:01;18.30;;;6.03;;
73100;SDS011;61288;53.446;-2.266;2024-01-07T09:28:27;17.92;;;6.15;;
73100;SDS011;61288;53.446;-2.266;2024-01-07T09:30:53;15.48;;;6.15;;
73100;SDS011;61288;53.446;-2.266;2024-01-07T09:33:19;17.40;;;5.38;;
73100;SDS011;61288;53.446;-2.266;2024-01-07T09:35:47;13.55;;;4.95;;
73100;SDS011;61288;53.446;-2.266;2024-01-07T09:38:13;15.43;;;4.95;;
73100;SDS011;61288;53.446;-2.266;2024-01-07T09:40:38;12.05;;;4.15;;
73100;SDS011;61288;53.446;-2.266;2024-01-07T09:43:04;14.70;;;4.55;;
73100;SDS011;61288;53.446;-2.266;2024-01-07T09:45:31;17.02;;;4.95;;
73100;SDS011;61288;53.446;-2.266;2024-01-07T09:47:56;12.18;;;4.38;;
73100;SDS011;61288;53.446;-2.266;2024-01-07T09:50:22;15.85;;;4.93;;
73100;SDS011;61288;53.446;-2.266;2024-01-07T09:52:47;10.98;;;3.95;;
73100;SDS011;61288;53.446;-2.266;2024-01-07T09:55:16;15.98;;;5.13;;
73100;SDS011;61288;53.446;-2.266;2024-01-07T09:57:52;12.63;;;4.75;;
73100;SDS011;61288;53.446;-2.266;2024-01-07T10:00:17;10.68;;;4.13;;
73100;SDS011;61288;53.446;-2.266;2024-01-07T10:02:43;14.63;;;4.60;;
73100;SDS011;61288;53.446;-2.266;2024-01-07T10:05:09;11.82;;;4.90;;
73100;SDS011;61288;53.446;-2.266;2024-01-07T10:07:34;11.18;;;4.03;;
73100;SDS011;61288;53.446;-2.266;2024-01-07T10:10:15;14.05;;;4.78;;
73100;SDS011;61288;53.446;-2.266;2024-01-07T10:12:43;14.73;;;5.38;;
73100;SDS011;61288;53.446;-2.266;2024-01-07T10:15:12;15.02;;;5.32;;
73100;SDS011;61288;53.446;-2.266;2024-01-07T10:17:39;13.63;;;4.68;;
73100;SDS011;61288;53.446;-2.266;2024-01-07T10:20:07;14.10;;;5.50;;
73100;SDS011;61288;53.446;-2.266;2024-01-07T10:22:35;16.42;;;5.53;;
73100;SDS011;61288;53.446;-2.266;2024-01-07T10:25:02;13.10;;;4.68;;
73100;SDS011;61288;53.446;-2.266;2024-01-07T10:27:28;14.20;;;4.88;;
73100;SDS011;61288;53.446;-2.266;2024-01-07T10:29:53;15.52;;;5.10;;
73100;SDS011;61288;53.446;-2.266;2024-01-07T10:32:20;14.90;;;4.97;;
73100;SDS011;61288;53.446;-2.266;2024-01-07T10:34:46;15.23;;;5.00;;
73100;SDS011;61288;53.446;-2.266;2024-01-07T10:37:12;13.15;;;5.05;;
73100;SDS011;61288;53.446;-2.266;2024-01-07T10:39:39;12.35;;;4.60;;
73100;SDS011;61288;53.446;-2.266;2024-01-07T10:42:04;12.20;;;5.00;;
73100;SDS011;61288;53.446;-2.266;2024-01-07T10:44:31;12.70;;;5.15;;
73100;SDS011;61288;53.446;-2.266;2024-01-07T10:46:58;14.20;;;4.72;;
73100;SDS011;61288;53.446;-2.266;2024-01-07T10:49:24;11.07;;;4.32;;
73100;SDS011;61288;53.446;-2.266;2024-01-07T10:52:04;11.80;;;4.70;;
73100;SDS011;61288;53.446;-2.266;2024-01-07T10:54:32;11.95;;;4.60;;
73100;SDS011;61288;53.446;-2.266;2024-01-07T10:57:00;10.75;;;4.47;;
73100;SDS011;61288;53.446;-2.266;2024-01-07T10:59:47;12.23;;;4.53;;
73100;SDS011;61288;53.446;-2.266;2024-01-07T11:02:15;11.98;;;3.85;;
73100;SDS011;61288;53.446;-2.266;2024-01-07T11:04:51;10.68;;;4.38;;
73100;SDS011;61288;53.446;-2.266;2024-01-07T11:07:34;9.45;;;3.40;;
73100;SDS011;61288;53.446;-2.266;2024-01-07T11:10:08;10.93;;;3.50;;
73100;SDS011;61288;53.446;-2.266;2024-01-07T11:12:36;9.57;;;3.30;;
73100;SDS011;61288;53.446;-2.266;2024-01-07T11:15:03;11.00;;;3.85;;
73100;SDS011;61288;53.446;-2.266;2024-01-07T11:20:01;12.10;;;3.88;;
73100;SDS011;61288;53.446;-2.266;2024-01-07T11:22:27;12.68;;;3.85;;
73100;SDS011;61288;53.446;-2.266;2024-01-07T11:24:54;11.07;;;4.10;;
73100;SDS011;61288;53.446;-2.266;2024-01-07T11:27:21;11.68;;;4.15;;
73100;SDS011;61288;53.446;-2.266;2024-01-07T11:29:57;12.60;;;4.32;;
73100;SDS011;61288;53.446;-2.266;2024-01-07T11:32:29;11.18;;;4.07;;
73100;SDS011;61288;53.446;-2.266;2024-01-07T11:34:55;8.77;;;3.25;;
73100;SDS011;61288;53.446;-2.266;2024-01-07T11:37:21;7.72;;;3.05;;
73100;SDS011;61288;53.446;-2.266;2024-01-07T11:39:55;9.43;;;3.40;;
73100;SDS011;61288;53.446;-2.266;2024-01-07T11:42:26;8.98;;;3.25;;
73100;SDS011;61288;53.446;-2.266;2024-01-07T11:44:52;10.38;;;3.50;;
73100;SDS011;61288;53.446;-2.266;2024-01-07T11:47:19;11.30;;;3.72;;
73100;SDS011;61288;53.446;-2.266;2024-01-07T11:49:46;12.73;;;4.10;;
73100;SDS011;61288;53.446;-2.266;2024-01-07T11:52:12;10.68;;;3.88;;
73100;SDS011;61288;53.446;-2.266;2024-01-07T11:54:38;7.88;;;3.20;;
73100;SDS011;61288;53.446;-2.266;2024-01-07T11:57:07;9.93;;;3.28;;
73100;SDS011;61288;53.446;-2.266;2024-01-07T11:59:33;7.75;;;2.75;;
73100;SDS011;61288;53.446;-2.266;2024-01-07T12:02:00;9.32;;;3.10;;
73100;SDS011;61288;53.446;-2.266;2024-01-07T12:04:26;7.93;;;2.90;;
73100;SDS011;61288;53.446;-2.266;2024-01-07T12:06:53;7.22;;;2.33;;
73100;SDS011;61288;53.446;-2.266;2024-01-07T12:09:18;6.88;;;2.25;;
73100;SDS011;61288;53.446;-2.266;2024-01-07T12:11:44;6.15;;;2.10;;
73100;SDS011;61288;53.446;-2.266;2024-01-07T12:14:10;6.28;;;2.00;;
73100;SDS011;61288;53.446;-2.266;2024-01-07T12:16:36;7.45;;;2.20;;
73100;SDS011;61288;53.446;-2.266;2024-01-07T12:19:02;6.15;;;2.08;;
73100;SDS011;61288;53.446;-2.266;2024-01-07T12:21:27;6.75;;;1.90;;
73100;SDS011;61288;53.446;-2.266;2024-01-07T12:23:54;5.78;;;1.80;;
73100;SDS011;61288;53.446;-2.266;2024-01-07T12:26:26;7.05;;;1.90;;
73100;SDS011;61288;53.446;-2.266;2024-01-07T12:28:53;7.85;;;1.90;;
73100;SDS011;61288;53.446;-2.266;2024-01-07T12:31:25;8.98;;;1.90;;
73100;SDS011;61288;53.446;-2.266;2024-01-07T12:33:54;4.28;;;1.70;;
73100;SDS011;61288;53.446;-2.266;2024-01-07T12:36:22;3.25;;;1.40;;
73100;SDS011;61288;53.446;-2.266;2024-01-07T12:38:47;6.25;;;1.75;;
73100;SDS011;61288;53.446;-2.266;2024-01-07T12:41:14;5.28;;;1.67;;
73100;SDS011;61288;53.446;-2.266;2024-01-07T12:43:39;4.68;;;1.45;;
73100;SDS011;61288;53.446;-2.266;2024-01-07T12:46:05;5.25;;;1.70;;
73100;SDS011;61288;53.446;-2.266;2024-01-07T12:48:32;7.00;;;1.80;;
73100;SDS011;61288;53.446;-2.266;2024-01-07T12:50:58;6.13;;;1.80;;
73100;SDS011;61288;53.446;-2.266;2024-01-07T12:53:25;8.85;;;2.00;;
73100;SDS011;61288;53.446;-2.266;2024-01-07T12:55:51;5.75;;;1.70;;
73100;SDS011;61288;53.446;-2.266;2024-01-07T12:58:17;4.43;;;1.73;;
73100;SDS011;61288;53.446;-2.266;2024-01-07T13:00:43;6.32;;;1.70;;
73100;SDS011;61288;53.446;-2.266;2024-01-07T13:03:09;5.18;;;1.75;;
73100;SDS011;61288;53.446;-2.266;2024-01-07T13:05:45;8.07;;;1.73;;
73100;SDS011;61288;53.446;-2.266;2024-01-07T13:08:13;7.18;;;1.80;;
73100;SDS011;61288;53.446;-2.266;2024-01-07T13:10:39;5.45;;;2.00;;
73100;SDS011;61288;53.446;-2.266;2024-01-07T13:13:05;5.60;;;2.00;;
73100;SDS011;61288;53.446;-2.266;2024-01-07T13:15:30;5.07;;;1.60;;
73100;SDS011;61288;53.446;-2.266;2024-01-07T13:17:56;3.92;;;1.70;;
73100;SDS011;61288;53.446;-2.266;2024-01-07T13:20:22;5.35;;;1.70;;
73100;SDS011;61288;53.446;-2.266;2024-01-07T13:22:47;3.60;;;1.55;;
73100;SDS011;61288;53.446;-2.266;2024-01-07T13:25:13;4.57;;;1.70;;
73100;SDS011;61288;53.446;-2.266;2024-01-07T13:27:39;4.45;;;1.90;;
73100;SDS011;61288;53.446;-2.266;2024-01-07T13:30:04;5.65;;;1.65;;
73100;SDS011;61288;53.446;-2.266;2024-01-07T13:32:33;4.93;;;1.55;;
73100;SDS011;61288;53.446;-2.266;2024-01-07T13:35:04;5.25;;;1.60;;
73100;SDS011;61288;53.446;-2.266;2024-01-07T13:37:31;5.60;;;1.80;;
73100;SDS011;61288;53.446;-2.266;2024-01-07T13:39:56;5.05;;;1.70;;
73100;SDS011;61288;53.446;-2.266;2024-01-07T13:42:22;5.13;;;1.83;;
73100;SDS011;61288;53.446;-2.266;2024-01-07T13:44:48;6.70;;;2.08;;
73100;SDS011;61288;53.446;-2.266;2024-01-07T13:47:13;5.05;;;1.70;;
73100;SDS011;61288;53.446;-2.266;2024-01-07T13:49:39;6.97;;;1.95;;
73100;SDS011;61288;53.446;-2.266;2024-01-07T13:52:06;4.18;;;1.60;;
73100;SDS011;61288;53.446;-2.266;2024-01-07T13:54:31;4.78;;;1.67;;
73100;SDS011;61288;53.446;-2.266;2024-01-07T13:56:57;4.55;;;1.60;;
73100;SDS011;61288;53.446;-2.266;2024-01-07T13:59:22;4.28;;;1.63;;
73100;SDS011;61288;53.446;-2.266;2024-01-07T14:01:48;6.65;;;1.90;;
73100;SDS011;61288;53.446;-2.266;2024-01-07T14:04:14;5.57;;;1.65;;
73100;SDS011;61288;53.446;-2.266;2024-01-07T14:06:40;7.93;;;1.98;;
73100;SDS011;61288;53.446;-2.266;2024-01-07T14:09:06;7.15;;;2.30;;
73100;SDS011;61288;53.446;-2.266;2024-01-07T14:11:33;11.05;;;1.77;;
73100;SDS011;61288;53.446;-2.266;2024-01-07T14:13:59;4.95;;;1.88;;
73100;SDS011;61288;53.446;-2.266;2024-01-07T14:16:26;6.10;;;2.00;;
73100;SDS011;61288;53.446;-2.266;2024-01-07T14:18:52;6.47;;;2.05;;
73100;SDS011;61288;53.446;-2.266;2024-01-07T14:21:19;6.50;;;2.20;;
73100;SDS011;61288;53.446;-2.266;2024-01-07T14:23:44;6.53;;;2.28;;